sensor_id;sensor_type;location;lat;lon;timestamp;P1;durP1;ratioP1;P2;durP2;ratioP2
41141;SDS011;63666;52.284;20.890;2023-06-19T00:00:15;9.20;;;8.30;;
41141;SDS011;63666;52.284;20.890;2023-06-19T00:03:12;9.30;;;8.40;;
41141;SDS011;63666;52.284;20.890;2023-06-19T00:05:46;9.40;;;8.50;;
41141;SDS011;63666;52.284;20.890;2023-06-19T00:08:21;9.50;;;8.60;;
41141;SDS011;63666;52.284;20.890;2023-06-19T00:10:55;9.50;;;8.60;;
41141;SDS011;63666;52.284;20.890;2023-06-19T00:13:28;8.90;;;8.00;;
41141;SDS011;63666;52.284;20.890;2023-06-19T00:16:03;9.10;;;8.30;;
41141;SDS011;63666;52.284;20.890;2023-06-19T00:18:37;8.90;;;8.10;;
41141;SDS011;63666;52.284;20.890;2023-06-19T00:21:13;9.10;;;8.20;;
41141;SDS011;63666;52.284;20.890;2023-06-19T00:23:49;9.40;;;8.50;;
41141;SDS011;63666;52.284;20.890;2023-06-19T00:26:23;9.30;;;8.40;;
41141;SDS011;63666;52.284;20.890;2023-06-19T00:28:56;9.10;;;8.20;;
41141;SDS011;63666;52.284;20.890;2023-06-19T00:31:30;9.00;;;8.10;;
41141;SDS011;63666;52.284;20.890;2023-06-19T00:34:09;9.20;;;8.30;;
41141;SDS011;63666;52.284;20.890;2023-06-19T00:36:42;9.10;;;8.20;;
41141;SDS011;63666;52.284;20.890;2023-06-19T00:39:17;9.00;;;8.20;;
41141;SDS011;63666;52.284;20.890;2023-06-19T00:41:51;8.80;;;7.90;;
41141;SDS011;63666;52.284;20.890;2023-06-19T00:44:24;9.20;;;8.30;;
41141;SDS011;63666;52.284;20.890;2023-06-19T00:47:03;9.40;;;8.50;;
41141;SDS011;63666;52.284;20.890;2023-06-19T00:49:37;9.50;;;8.60;;
41141;SDS011;63666;52.284;20.890;2023-06-19T00:52:12;8.90;;;8.00;;
41141;SDS011;63666;52.284;20.890;2023-06-19T00:54:50;8.90;;;8.10;;
41141;SDS011;63666;52.284;20.890;2023-06-19T00:57:24;9.10;;;8.10;;
41141;SDS011;63666;52.284;20.890;2023-06-19T00:59:58;9.30;;;8.30;;
41141;SDS011;63666;52.284;20.890;2023-06-19T01:02:31;8.90;;;8.10;;
41141;SDS011;63666;52.284;20.890;2023-06-19T01:05:10;8.90;;;8.00;;
41141;SDS011;63666;52.284;20.890;2023-06-19T01:07:48;9.40;;;8.50;;
41141;SDS011;63666;52.284;20.890;2023-06-19T01:10:30;9.40;;;8.50;;
41141;SDS011;63666;52.284;20.890;2023-06-19T01:13:10;9.20;;;8.40;;
41141;SDS011;63666;52.284;20.890;2023-06-19T01:15:44;9.50;;;8.60;;
41141;SDS011;63666;52.284;20.890;2023-06-19T01:18:20;9.50;;;8.60;;
41141;SDS011;63666;52.284;20.890;2023-06-19T01:20:54;9.00;;;8.20;;
41141;SDS011;63666;52.284;20.890;2023-06-19T01:23:27;9.00;;;8.20;;
41141;SDS011;63666;52.284;20.890;2023-06-19T01:26:00;9.40;;;8.40;;
41141;SDS011;63666;52.284;20.890;2023-06-19T01:28:34;9.00;;;8.10;;
41141;SDS011;63666;52.284;20.890;2023-06-19T01:31:12;9.50;;;8.60;;
41141;SDS011;63666;52.284;20.890;2023-06-19T01:33:48;8.90;;;8.10;;
41141;SDS011;63666;52.284;20.890;2023-06-19T01:36:25;9.10;;;8.30;;
41141;SDS011;63666;52.284;20.890;2023-06-19T01:39:01;9.00;;;8.20;;
41141;SDS011;63666;52.284;20.890;2023-06-19T01:41:37;9.80;;;8.90;;
41141;SDS011;63666;52.284;20.890;2023-06-19T01:44:11;9.20;;;8.30;;
41141;SDS011;63666;52.284;20.890;2023-06-19T01:46:51;9.30;;;8.40;;
41141;SDS011;63666;52.284;20.890;2023-06-19T01:49:26;9.70;;;8.80;;
41141;SDS011;63666;52.284;20.890;2023-06-19T01:52:00;9.40;;;8.50;;
41141;SDS011;63666;52.284;20.890;2023-06-19T01:54:34;9.60;;;8.70;;
41141;SDS011;63666;52.284;20.890;2023-06-19T01:57:10;9.40;;;8.50;;
41141;SDS011;63666;52.284;20.890;2023-06-19T01:59:44;8.90;;;8.10;;
41141;SDS011;63666;52.284;20.890;2023-06-19T02:02:17;9.00;;;8.20;;
41141;SDS011;63666;52.284;20.890;2023-06-19T02:04:51;9.00;;;8.20;;
41141;SDS011;63666;52.284;20.890;2023-06-19T02:07:26;9.10;;;8.20;;
41141;SDS011;63666;52.284;20.890;2023-06-19T02:10:03;9.60;;;8.70;;
41141;SDS011;63666;52.284;20.890;2023-06-19T02:12:40;9.50;;;8.60;;
41141;SDS011;63666;52.284;20.890;2023-06-19T02:15:14;9.20;;;8.30;;
41141;SDS011;63666;52.284;20.890;2023-06-19T02:17:51;9.00;;;8.20;;
41141;SDS011;63666;52.284;20.890;2023-06-19T02:20:26;9.30;;;8.30;;
41141;SDS011;63666;52.284;20.890;2023-06-19T02:23:00;9.20;;;8.40;;
41141;SDS011;63666;52.284;20.890;2023-06-19T02:25:33;9.30;;;8.40;;
41141;SDS011;63666;52.284;20.890;2023-06-19T02:28:09;8.90;;;8.10;;
41141;SDS011;63666;52.284;20.890;2023-06-19T02:30:42;8.80;;;7.90;;
41141;SDS011;63666;52.284;20.890;2023-06-19T02:33:16;8.70;;;7.90;;
41141;SDS011;63666;52.284;20.890;2023-06-19T02:35:49;8.30;;;7.50;;
41141;SDS011;63666;52.284;20.890;2023-06-19T02:38:22;8.80;;;8.00;;
41141;SDS011;63666;52.284;20.890;2023-06-19T02:40:57;8.80;;;7.90;;
41141;SDS011;63666;52.284;20.890;2023-06-19T02:43:32;8.50;;;7.70;;
41141;SDS011;63666;52.284;20.890;2023-06-19T02:46:10;9.30;;;8.40;;
41141;SDS011;63666;52.284;20.890;2023-06-19T02:48:43;8.50;;;7.70;;
41141;SDS011;63666;52.284;20.890;2023-06-19T02:51:17;8.60;;;7.70;;
41141;SDS011;63666;52.284;20.890;2023-06-19T02:53:51;8.70;;;7.90;;
41141;SDS011;63666;52.284;20.890;2023-06-19T02:56:26;8.50;;;7.70;;
41141;SDS011;63666;52.284;20.890;2023-06-19T02:58:59;8.30;;;7.50;;
41141;SDS011;63666;52.284;20.890;2023-06-19T03:01:32;8.70;;;7.80;;
41141;SDS011;63666;52.284;20.890;2023-06-19T03:04:08;8.30;;;7.50;;
41141;SDS011;63666;52.284;20.890;2023-06-19T03:06:43;8.60;;;7.80;;
41141;SDS011;63666;52.284;20.890;2023-06-19T03:09:16;8.60;;;7.80;;
41141;SDS011;63666;52.284;20.890;2023-06-19T03:11:49;9.20;;;8.30;;
41141;SDS011;63666;52.284;20.890;2023-06-19T03:14:26;8.40;;;7.60;;
41141;SDS011;63666;52.284;20.890;2023-06-19T03:16:59;8.70;;;7.80;;
41141;SDS011;63666;52.284;20.890;2023-06-19T03:19:32;8.40;;;7.60;;
41141;SDS011;63666;52.284;20.890;2023-06-19T03:22:07;8.40;;;7.60;;
41141;SDS011;63666;52.284;20.890;2023-06-19T03:24:40;9.00;;;8.10;;
41141;SDS011;63666;52.284;20.890;2023-06-19T03:27:15;8.50;;;7.70;;
41141;SDS011;63666;52.284;20.890;2023-06-19T03:29:48;8.50;;;7.60;;
41141;SDS011;63666;52.284;20.890;2023-06-19T03:32:22;8.70;;;7.80;;
41141;SDS011;63666;52.284;20.890;2023-06-19T03:34:57;8.50;;;7.60;;
41141;SDS011;63666;52.284;20.890;2023-06-19T03:37:31;8.40;;;7.60;;
41141;SDS011;63666;52.284;20.890;2023-06-19T03:40:06;8.20;;;7.30;;
41141;SDS011;63666;52.284;20.890;2023-06-19T03:42:44;8.30;;;7.50;;
41141;SDS011;63666;52.284;20.890;2023-06-19T03:45:17;7.90;;;7.20;;
41141;SDS011;63666;52.284;20.890;2023-06-19T03:47:52;8.50;;;7.70;;
41141;SDS011;63666;52.284;20.890;2023-06-19T03:50:26;8.40;;;7.60;;
41141;SDS011;63666;52.284;20.890;2023-06-19T03:53:00;8.50;;;7.70;;
41141;SDS011;63666;52.284;20.890;2023-06-19T03:55:35;8.80;;;8.00;;
41141;SDS011;63666;52.284;20.890;2023-06-19T03:58:08;8.20;;;7.40;;
41141;SDS011;63666;52.284;20.890;2023-06-19T04:00:42;8.50;;;7.70;;
41141;SDS011;63666;52.284;20.890;2023-06-19T04:03:16;8.10;;;7.30;;
41141;SDS011;63666;52.284;20.890;2023-06-19T04:05:49;8.20;;;7.40;;
41141;SDS011;63666;52.284;20.890;2023-06-19T04:08:24;8.80;;;7.90;;
41141;SDS011;63666;52.284;20.890;2023-06-19T04:10:57;7.90;;;7.10;;
41141;SDS011;63666;52.284;20.890;2023-06-19T04:13:32;8.30;;;7.50;;
41141;SDS011;63666;52.284;20.890;2023-06-19T04:16:06;8.60;;;7.70;;
41141;SDS011;63666;52.284;20.890;2023-06-19T04:18:39;8.30;;;7.50;;
41141;SDS011;63666;52.284;20.890;2023-06-19T04:21:15;8.30;;;7.40;;
41141;SDS011;63666;52.284;20.890;2023-06-19T04:23:49;8.50;;;7.70;;
41141;SDS011;63666;52.284;20.890;2023-06-19T04:26:26;8.60;;;7.70;;
41141;SDS011;63666;52.284;20.890;2023-06-19T04:29:07;8.10;;;7.30;;
41141;SDS011;63666;52.284;20.890;2023-06-19T04:31:50;8.40;;;7.30;;
41141;SDS011;63666;52.284;20.890;2023-06-19T04:34:25;8.40;;;7.60;;
41141;SDS011;63666;52.284;20.890;2023-06-19T04:37:02;8.20;;;7.40;;
41141;SDS011;63666;52.284;20.890;2023-06-19T04:39:40;8.00;;;7.20;;
41141;SDS011;63666;52.284;20.890;2023-06-19T04:42:16;8.50;;;7.70;;
41141;SDS011;63666;52.284;20.890;2023-06-19T04:44:53;8.40;;;7.60;;
41141;SDS011;63666;52.284;20.890;2023-06-19T04:47:30;8.40;;;7.60;;
41141;SDS011;63666;52.284;20.890;2023-06-19T04:50:22;8.80;;;8.00;;
41141;SDS011;63666;52.284;20.890;2023-06-19T04:52:56;8.00;;;7.20;;
41141;SDS011;63666;52.284;20.890;2023-06-19T04:55:32;8.20;;;7.40;;
41141;SDS011;63666;52.284;20.890;2023-06-19T04:58:09;8.70;;;7.90;;
41141;SDS011;63666;52.284;20.890;2023-06-19T05:00:44;9.00;;;8.10;;
41141;SDS011;63666;52.284;20.890;2023-06-19T05:03:21;8.20;;;7.40;;
41141;SDS011;63666;52.284;20.890;2023-06-19T05:05:56;8.20;;;7.40;;
41141;SDS011;63666;52.284;20.890;2023-06-19T05:08:30;8.30;;;7.40;;
41141;SDS011;63666;52.284;20.890;2023-06-19T05:11:03;8.00;;;7.30;;
41141;SDS011;63666;52.284;20.890;2023-06-19T05:13:36;7.80;;;7.00;;
41141;SDS011;63666;52.284;20.890;2023-06-19T05:16:12;7.70;;;7.00;;
41141;SDS011;63666;52.284;20.890;2023-06-19T05:18:47;7.80;;;7.10;;
41141;SDS011;63666;52.284;20.890;2023-06-19T05:21:23;8.20;;;7.40;;
41141;SDS011;63666;52.284;20.890;2023-06-19T05:23:56;8.10;;;7.30;;
41141;SDS011;63666;52.284;20.890;2023-06-19T05:26:34;8.10;;;7.30;;
41141;SDS011;63666;52.284;20.890;2023-06-19T05:29:08;8.10;;;7.40;;
41141;SDS011;63666;52.284;20.890;2023-06-19T05:31:42;8.70;;;7.90;;
41141;SDS011;63666;52.284;20.890;2023-06-19T05:34:16;7.90;;;7.10;;
41141;SDS011;63666;52.284;20.890;2023-06-19T05:36:50;8.40;;;7.60;;
41141;SDS011;63666;52.284;20.890;2023-06-19T05:39:26;8.20;;;7.40;;
41141;SDS011;63666;52.284;20.890;2023-06-19T05:42:01;8.40;;;7.60;;
41141;SDS011;63666;52.284;20.890;2023-06-19T05:44:35;8.10;;;7.30;;
41141;SDS011;63666;52.284;20.890;2023-06-19T05:47:10;8.50;;;7.70;;
41141;SDS011;63666;52.284;20.890;2023-06-19T05:49:45;8.10;;;7.30;;
41141;SDS011;63666;52.284;20.890;2023-06-19T05:52:20;8.20;;;7.40;;
41141;SDS011;63666;52.284;20.890;2023-06-19T05:54:53;8.50;;;7.70;;
41141;SDS011;63666;52.284;20.890;2023-06-19T05:57:28;8.60;;;7.00;;
41141;SDS011;63666;52.284;20.890;2023-06-19T06:00:02;8.10;;;7.30;;
41141;SDS011;63666;52.284;20.890;2023-06-19T06:02:39;8.00;;;7.20;;
41141;SDS011;63666;52.284;20.890;2023-06-19T06:05:18;8.30;;;7.50;;
41141;SDS011;63666;52.284;20.890;2023-06-19T06:07:52;8.20;;;7.40;;
41141;SDS011;63666;52.284;20.890;2023-06-19T06:10:25;7.90;;;7.10;;
41141;SDS011;63666;52.284;20.890;2023-06-19T06:12:59;8.40;;;7.50;;
41141;SDS011;63666;52.284;20.890;2023-06-19T06:15:36;7.80;;;7.00;;
41141;SDS011;63666;52.284;20.890;2023-06-19T06:18:10;7.80;;;7.00;;
41141;SDS011;63666;52.284;20.890;2023-06-19T06:20:44;8.00;;;7.20;;
41141;SDS011;63666;52.284;20.890;2023-06-19T06:23:17;8.00;;;7.10;;
41141;SDS011;63666;52.284;20.890;2023-06-19T06:25:51;8.20;;;7.10;;
41141;SDS011;63666;52.284;20.890;2023-06-19T06:28:27;7.70;;;6.90;;
41141;SDS011;63666;52.284;20.890;2023-06-19T06:31:02;8.50;;;7.60;;
41141;SDS011;63666;52.284;20.890;2023-06-19T06:33:38;8.10;;;7.30;;
41141;SDS011;63666;52.284;20.890;2023-06-19T06:36:14;8.90;;;7.30;;
41141;SDS011;63666;52.284;20.890;2023-06-19T06:39:05;8.50;;;7.10;;
41141;SDS011;63666;52.284;20.890;2023-06-19T06:41:38;7.50;;;6.70;;
41141;SDS011;63666;52.284;20.890;2023-06-19T06:44:13;8.30;;;7.50;;
41141;SDS011;63666;52.284;20.890;2023-06-19T06:46:46;8.30;;;7.30;;
41141;SDS011;63666;52.284;20.890;2023-06-19T06:49:22;7.80;;;6.80;;
41141;SDS011;63666;52.284;20.890;2023-06-19T06:51:56;8.00;;;7.10;;
41141;SDS011;63666;52.284;20.890;2023-06-19T06:54:29;7.60;;;6.60;;
41141;SDS011;63666;52.284;20.890;2023-06-19T06:57:03;7.70;;;6.80;;
41141;SDS011;63666;52.284;20.890;2023-06-19T06:59:37;7.40;;;6.60;;
41141;SDS011;63666;52.284;20.890;2023-06-19T07:02:10;7.90;;;6.90;;
41141;SDS011;63666;52.284;20.890;2023-06-19T07:04:46;7.50;;;6.50;;
41141;SDS011;63666;52.284;20.890;2023-06-19T07:07:19;7.10;;;6.40;;
41141;SDS011;63666;52.284;20.890;2023-06-19T07:09:55;7.50;;;6.60;;
41141;SDS011;63666;52.284;20.890;2023-06-19T07:12:28;7.50;;;6.70;;
41141;SDS011;63666;52.284;20.890;2023-06-19T07:15:05;7.20;;;6.50;;
41141;SDS011;63666;52.284;20.890;2023-06-19T07:17:39;7.40;;;6.50;;
41141;SDS011;63666;52.284;20.890;2023-06-19T07:20:13;6.90;;;6.20;;
41141;SDS011;63666;52.284;20.890;2023-06-19T07:22:47;7.50;;;6.70;;
41141;SDS011;63666;52.284;20.890;2023-06-19T07:25:26;7.10;;;6.20;;
41141;SDS011;63666;52.284;20.890;2023-06-19T07:28:00;7.00;;;6.10;;
41141;SDS011;63666;52.284;20.890;2023-06-19T07:30:34;6.90;;;6.10;;
41141;SDS011;63666;52.284;20.890;2023-06-19T07:33:11;7.50;;;6.70;;
41141;SDS011;63666;52.284;20.890;2023-06-19T07:35:46;7.70;;;6.40;;
41141;SDS011;63666;52.284;20.890;2023-06-19T07:38:20;7.00;;;5.60;;
41141;SDS011;63666;52.284;20.890;2023-06-19T07:40:53;8.30;;;6.20;;
41141;SDS011;63666;52.284;20.890;2023-06-19T07:43:27;6.70;;;6.00;;
41141;SDS011;63666;52.284;20.890;2023-06-19T07:46:00;6.50;;;5.80;;
41141;SDS011;63666;52.284;20.890;2023-06-19T07:48:33;6.50;;;5.90;;
41141;SDS011;63666;52.284;20.890;2023-06-19T07:51:06;6.80;;;6.00;;
41141;SDS011;63666;52.284;20.890;2023-06-19T07:53:42;6.70;;;6.00;;
41141;SDS011;63666;52.284;20.890;2023-06-19T07:56:17;7.20;;;6.30;;
41141;SDS011;63666;52.284;20.890;2023-06-19T07:58:50;6.60;;;5.90;;
41141;SDS011;63666;52.284;20.890;2023-06-19T08:01:23;7.10;;;6.30;;
41141;SDS011;63666;52.284;20.890;2023-06-19T08:03:56;6.50;;;5.90;;
41141;SDS011;63666;52.284;20.890;2023-06-19T08:06:30;6.50;;;5.80;;
41141;SDS011;63666;52.284;20.890;2023-06-19T08:09:04;6.80;;;5.80;;
41141;SDS011;63666;52.284;20.890;2023-06-19T08:11:37;6.30;;;5.60;;
41141;SDS011;63666;52.284;20.890;2023-06-19T08:14:10;6.60;;;5.90;;
41141;SDS011;63666;52.284;20.890;2023-06-19T08:16:43;6.40;;;5.80;;
41141;SDS011;63666;52.284;20.890;2023-06-19T08:19:18;6.70;;;6.00;;
41141;SDS011;63666;52.284;20.890;2023-06-19T08:21:55;7.20;;;5.80;;
41141;SDS011;63666;52.284;20.890;2023-06-19T08:24:28;7.30;;;5.90;;
41141;SDS011;63666;52.284;20.890;2023-06-19T08:27:02;6.70;;;5.80;;
41141;SDS011;63666;52.284;20.890;2023-06-19T08:29:36;6.50;;;5.80;;
41141;SDS011;63666;52.284;20.890;2023-06-19T08:32:13;6.90;;;5.60;;
41141;SDS011;63666;52.284;20.890;2023-06-19T08:34:46;6.50;;;5.80;;
41141;SDS011;63666;52.284;20.890;2023-06-19T08:37:21;6.30;;;5.60;;
41141;SDS011;63666;52.284;20.890;2023-06-19T08:39:54;6.50;;;5.80;;
41141;SDS011;63666;52.284;20.890;2023-06-19T08:42:28;6.60;;;5.60;;
41141;SDS011;63666;52.284;20.890;2023-06-19T08:45:02;6.30;;;5.70;;
41141;SDS011;63666;52.284;20.890;2023-06-19T08:47:39;6.90;;;5.60;;
41141;SDS011;63666;52.284;20.890;2023-06-19T08:50:15;6.20;;;5.60;;
41141;SDS011;63666;52.284;20.890;2023-06-19T08:52:51;6.60;;;5.80;;
41141;SDS011;63666;52.284;20.890;2023-06-19T08:55:27;6.20;;;5.60;;
41141;SDS011;63666;52.284;20.890;2023-06-19T08:58:00;5.80;;;5.20;;
41141;SDS011;63666;52.284;20.890;2023-06-19T09:00:34;6.20;;;5.60;;
41141;SDS011;63666;52.284;20.890;2023-06-19T09:03:07;6.00;;;5.40;;
41141;SDS011;63666;52.284;20.890;2023-06-19T09:05:44;6.20;;;5.50;;
41141;SDS011;63666;52.284;20.890;2023-06-19T09:08:22;6.60;;;5.40;;
41141;SDS011;63666;52.284;20.890;2023-06-19T09:11:00;6.10;;;5.50;;
41141;SDS011;63666;52.284;20.890;2023-06-19T09:13:39;5.90;;;5.30;;
41141;SDS011;63666;52.284;20.890;2023-06-19T09:16:12;6.50;;;5.30;;
41141;SDS011;63666;52.284;20.890;2023-06-19T09:18:46;7.30;;;5.50;;
41141;SDS011;63666;52.284;20.890;2023-06-19T09:21:22;6.00;;;5.40;;
41141;SDS011;63666;52.284;20.890;2023-06-19T09:23:58;5.90;;;5.30;;
41141;SDS011;63666;52.284;20.890;2023-06-19T09:26:36;6.10;;;5.50;;
41141;SDS011;63666;52.284;20.890;2023-06-19T09:29:13;6.20;;;5.40;;
41141;SDS011;63666;52.284;20.890;2023-06-19T09:31:52;6.10;;;5.20;;
41141;SDS011;63666;52.284;20.890;2023-06-19T09:34:27;5.90;;;5.30;;
41141;SDS011;63666;52.284;20.890;2023-06-19T09:37:01;5.70;;;5.10;;
41141;SDS011;63666;52.284;20.890;2023-06-19T09:39:35;5.80;;;5.10;;
41141;SDS011;63666;52.284;20.890;2023-06-19T09:42:10;5.80;;;4.90;;
41141;SDS011;63666;52.284;20.890;2023-06-19T09:44:45;5.60;;;4.90;;
41141;SDS011;63666;52.284;20.890;2023-06-19T09:47:25;6.10;;;5.20;;
41141;SDS011;63666;52.284;20.890;2023-06-19T09:50:04;5.70;;;5.10;;
41141;SDS011;63666;52.284;20.890;2023-06-19T09:52:41;5.80;;;5.20;;
41141;SDS011;63666;52.284;20.890;2023-06-19T09:55:20;5.90;;;5.30;;
41141;SDS011;63666;52.284;20.890;2023-06-19T09:58:00;6.10;;;5.40;;
41141;SDS011;63666;52.284;20.890;2023-06-19T10:00:37;5.40;;;4.80;;
41141;SDS011;63666;52.284;20.890;2023-06-19T10:03:14;5.80;;;5.10;;
41141;SDS011;63666;52.284;20.890;2023-06-19T10:05:58;5.80;;;5.00;;
41141;SDS011;63666;52.284;20.890;2023-06-19T10:08:40;5.80;;;5.10;;
41141;SDS011;63666;52.284;20.890;2023-06-19T10:11:17;5.90;;;4.80;;
41141;SDS011;63666;52.284;20.890;2023-06-19T10:13:53;5.70;;;5.10;;
41141;SDS011;63666;52.284;20.890;2023-06-19T10:16:26;6.00;;;5.40;;
41141;SDS011;63666;52.284;20.890;2023-06-19T10:19:10;5.90;;;5.30;;
41141;SDS011;63666;52.284;20.890;2023-06-19T10:21:52;5.70;;;5.10;;
41141;SDS011;63666;52.284;20.890;2023-06-19T10:24:30;5.80;;;5.00;;
41141;SDS011;63666;52.284;20.890;2023-06-19T10:27:05;5.80;;;5.20;;
41141;SDS011;63666;52.284;20.890;2023-06-19T10:29:41;5.80;;;5.10;;
41141;SDS011;63666;52.284;20.890;2023-06-19T10:32:30;5.40;;;4.90;;
41141;SDS011;63666;52.284;20.890;2023-06-19T10:35:11;5.60;;;5.00;;
41141;SDS011;63666;52.284;20.890;2023-06-19T10:37:46;5.40;;;4.90;;
41141;SDS011;63666;52.284;20.890;2023-06-19T10:40:20;5.70;;;5.10;;
41141;SDS011;63666;52.284;20.890;2023-06-19T10:42:54;5.50;;;4.90;;
41141;SDS011;63666;52.284;20.890;2023-06-19T10:45:28;5.60;;;5.00;;
41141;SDS011;63666;52.284;20.890;2023-06-19T10:48:08;5.50;;;5.00;;
41141;SDS011;63666;52.284;20.890;2023-06-19T10:50:44;5.40;;;4.80;;
41141;SDS011;63666;52.284;20.890;2023-06-19T10:53:29;5.50;;;4.90;;
41141;SDS011;63666;52.284;20.890;2023-06-19T10:56:04;5.70;;;5.00;;
41141;SDS011;63666;52.284;20.890;2023-06-19T10:58:39;5.50;;;5.00;;
41141;SDS011;63666;52.284;20.890;2023-06-19T11:01:15;5.60;;;5.00;;
41141;SDS011;63666;52.284;20.890;2023-06-19T11:03:51;5.60;;;5.00;;
41141;SDS011;63666;52.284;20.890;2023-06-19T11:06:26;5.70;;;5.00;;
41141;SDS011;63666;52.284;20.890;2023-06-19T11:08:59;5.80;;;5.20;;
41141;SDS011;63666;52.284;20.890;2023-06-19T11:11:40;5.80;;;5.10;;
41141;SDS011;63666;52.284;20.890;2023-06-19T11:14:17;6.00;;;5.40;;
41141;SDS011;63666;52.284;20.890;2023-06-19T11:16:50;5.90;;;5.10;;
41141;SDS011;63666;52.284;20.890;2023-06-19T11:19:29;6.00;;;5.30;;
41141;SDS011;63666;52.284;20.890;2023-06-19T11:22:07;6.10;;;5.50;;
41141;SDS011;63666;52.284;20.890;2023-06-19T11:24:44;6.30;;;5.70;;
41141;SDS011;63666;52.284;20.890;2023-06-19T11:27:20;6.80;;;5.60;;
41141;SDS011;63666;52.284;20.890;2023-06-19T11:29:59;6.50;;;5.60;;
41141;SDS011;63666;52.284;20.890;2023-06-19T11:32:36;6.10;;;5.50;;
41141;SDS011;63666;52.284;20.890;2023-06-19T11:35:15;6.20;;;5.60;;
41141;SDS011;63666;52.284;20.890;2023-06-19T11:37:48;6.00;;;5.40;;
41141;SDS011;63666;52.284;20.890;2023-06-19T11:40:24;6.10;;;5.50;;
41141;SDS011;63666;52.284;20.890;2023-06-19T11:42:59;6.40;;;5.20;;
41141;SDS011;63666;52.284;20.890;2023-06-19T11:45:47;6.10;;;5.30;;
41141;SDS011;63666;52.284;20.890;2023-06-19T11:48:25;5.80;;;5.20;;
41141;SDS011;63666;52.284;20.890;2023-06-19T11:50:59;6.20;;;5.60;;
41141;SDS011;63666;52.284;20.890;2023-06-19T11:53:33;6.60;;;5.10;;
41141;SDS011;63666;52.284;20.890;2023-06-19T11:56:08;5.90;;;5.30;;
41141;SDS011;63666;52.284;20.890;2023-06-19T11:58:44;5.90;;;5.30;;
41141;SDS011;63666;52.284;20.890;2023-06-19T12:01:18;5.80;;;5.20;;
41141;SDS011;63666;52.284;20.890;2023-06-19T12:03:54;5.80;;;5.20;;
41141;SDS011;63666;52.284;20.890;2023-06-19T12:06:29;6.10;;;5.20;;
41141;SDS011;63666;52.284;20.890;2023-06-19T12:09:02;6.70;;;5.60;;
41141;SDS011;63666;52.284;20.890;2023-06-19T12:11:36;6.00;;;5.40;;
41141;SDS011;63666;52.284;20.890;2023-06-19T12:14:13;6.30;;;5.70;;
41141;SDS011;63666;52.284;20.890;2023-06-19T12:16:46;6.20;;;5.60;;
41141;SDS011;63666;52.284;20.890;2023-06-19T12:19:28;6.10;;;5.50;;
41141;SDS011;63666;52.284;20.890;2023-06-19T12:22:03;6.20;;;5.60;;
41141;SDS011;63666;52.284;20.890;2023-06-19T12:24:41;6.50;;;5.80;;
41141;SDS011;63666;52.284;20.890;2023-06-19T12:27:18;6.10;;;5.50;;
41141;SDS011;63666;52.284;20.890;2023-06-19T12:29:56;6.00;;;5.40;;
41141;SDS011;63666;52.284;20.890;2023-06-19T12:32:37;6.00;;;5.40;;
41141;SDS011;63666;52.284;20.890;2023-06-19T12:35:11;6.10;;;5.50;;
41141;SDS011;63666;52.284;20.890;2023-06-19T12:37:45;6.30;;;5.70;;
41141;SDS011;63666;52.284;20.890;2023-06-19T12:40:18;6.60;;;5.90;;
41141;SDS011;63666;52.284;20.890;2023-06-19T12:42:54;6.00;;;5.40;;
41141;SDS011;63666;52.284;20.890;2023-06-19T12:45:27;6.30;;;5.70;;
41141;SDS011;63666;52.284;20.890;2023-06-19T12:48:02;6.40;;;5.80;;
41141;SDS011;63666;52.284;20.890;2023-06-19T12:50:36;6.40;;;5.80;;
41141;SDS011;63666;52.284;20.890;2023-06-19T12:53:09;6.80;;;6.20;;
41141;SDS011;63666;52.284;20.890;2023-06-19T12:55:42;6.50;;;5.90;;
41141;SDS011;63666;52.284;20.890;2023-06-19T12:58:32;6.10;;;5.50;;
41141;SDS011;63666;52.284;20.890;2023-06-19T13:01:05;6.20;;;5.60;;
41141;SDS011;63666;52.284;20.890;2023-06-19T13:03:40;6.80;;;6.10;;
41141;SDS011;63666;52.284;20.890;2023-06-19T13:06:15;6.40;;;5.80;;
41141;SDS011;63666;52.284;20.890;2023-06-19T13:08:50;6.60;;;5.90;;
41141;SDS011;63666;52.284;20.890;2023-06-19T13:11:27;6.50;;;5.80;;
41141;SDS011;63666;52.284;20.890;2023-06-19T13:14:00;6.40;;;5.80;;
41141;SDS011;63666;52.284;20.890;2023-06-19T13:16:39;6.90;;;6.20;;
41141;SDS011;63666;52.284;20.890;2023-06-19T13:19:17;7.40;;;6.70;;
41141;SDS011;63666;52.284;20.890;2023-06-19T13:21:53;7.10;;;6.40;;
41141;SDS011;63666;52.284;20.890;2023-06-19T13:24:29;6.20;;;5.60;;
41141;SDS011;63666;52.284;20.890;2023-06-19T13:27:03;7.00;;;6.20;;
41141;SDS011;63666;52.284;20.890;2023-06-19T13:29:37;6.50;;;5.90;;
41141;SDS011;63666;52.284;20.890;2023-06-19T13:32:11;7.00;;;6.30;;
41141;SDS011;63666;52.284;20.890;2023-06-19T13:34:46;7.30;;;6.60;;
41141;SDS011;63666;52.284;20.890;2023-06-19T13:37:19;7.30;;;6.40;;
41141;SDS011;63666;52.284;20.890;2023-06-19T13:39:56;7.50;;;6.70;;
41141;SDS011;63666;52.284;20.890;2023-06-19T13:42:30;7.10;;;6.40;;
41141;SDS011;63666;52.284;20.890;2023-06-19T13:45:07;7.30;;;6.10;;
41141;SDS011;63666;52.284;20.890;2023-06-19T13:47:41;7.20;;;6.40;;
41141;SDS011;63666;52.284;20.890;2023-06-19T13:50:15;7.20;;;6.50;;
41141;SDS011;63666;52.284;20.890;2023-06-19T13:52:51;7.00;;;6.30;;
41141;SDS011;63666;52.284;20.890;2023-06-19T13:55:27;7.20;;;6.50;;
41141;SDS011;63666;52.284;20.890;2023-06-19T13:58:00;7.10;;;6.40;;
41141;SDS011;63666;52.284;20.890;2023-06-19T14:00:35;6.90;;;6.20;;
41141;SDS011;63666;52.284;20.890;2023-06-19T14:03:09;6.70;;;6.10;;
41141;SDS011;63666;52.284;20.890;2023-06-19T14:05:42;6.60;;;5.90;;
41141;SDS011;63666;52.284;20.890;2023-06-19T14:08:18;6.80;;;6.10;;
41141;SDS011;63666;52.284;20.890;2023-06-19T14:10:51;6.70;;;6.10;;
41141;SDS011;63666;52.284;20.890;2023-06-19T14:13:25;6.60;;;5.90;;
41141;SDS011;63666;52.284;20.890;2023-06-19T14:16:01;6.20;;;5.60;;
41141;SDS011;63666;52.284;20.890;2023-06-19T14:18:37;6.20;;;5.60;;
41141;SDS011;63666;52.284;20.890;2023-06-19T14:21:10;6.70;;;5.50;;
41141;SDS011;63666;52.284;20.890;2023-06-19T14:23:46;6.20;;;5.60;;
41141;SDS011;63666;52.284;20.890;2023-06-19T14:26:21;6.10;;;5.50;;
41141;SDS011;63666;52.284;20.890;2023-06-19T14:28:57;6.10;;;5.50;;
41141;SDS011;63666;52.284;20.890;2023-06-19T14:31:31;6.20;;;5.60;;
41141;SDS011;63666;52.284;20.890;2023-06-19T14:34:09;5.90;;;5.30;;
41141;SDS011;63666;52.284;20.890;2023-06-19T14:36:42;6.30;;;5.60;;
41141;SDS011;63666;52.284;20.890;2023-06-19T14:39:21;5.90;;;5.30;;
41141;SDS011;63666;52.284;20.890;2023-06-19T14:41:59;6.60;;;6.00;;
41141;SDS011;63666;52.284;20.890;2023-06-19T14:44:32;6.10;;;5.50;;
41141;SDS011;63666;52.284;20.890;2023-06-19T14:47:06;6.00;;;5.40;;
41141;SDS011;63666;52.284;20.890;2023-06-19T14:49:44;5.90;;;5.30;;
41141;SDS011;63666;52.284;20.890;2023-06-19T14:52:20;6.30;;;5.70;;
41141;SDS011;63666;52.284;20.890;2023-06-19T14:54:53;7.30;;;5.50;;
41141;SDS011;63666;52.284;20.890;2023-06-19T14:57:29;6.20;;;5.60;;
41141;SDS011;63666;52.284;20.890;2023-06-19T15:00:07;6.40;;;5.70;;
41141;SDS011;63666;52.284;20.890;2023-06-19T15:02:44;5.80;;;5.20;;
41141;SDS011;63666;52.284;20.890;2023-06-19T15:05:18;6.10;;;5.50;;
41141;SDS011;63666;52.284;20.890;2023-06-19T15:07:58;5.90;;;5.30;;
41141;SDS011;63666;52.284;20.890;2023-06-19T15:10:32;5.80;;;5.20;;
41141;SDS011;63666;52.284;20.890;2023-06-19T15:13:06;6.10;;;5.50;;
41141;SDS011;63666;52.284;20.890;2023-06-19T15:15:40;5.60;;;5.00;;
41141;SDS011;63666;52.284;20.890;2023-06-19T15:18:17;5.90;;;5.30;;
41141;SDS011;63666;52.284;20.890;2023-06-19T15:20:56;5.80;;;5.10;;